Time;durP1;ratioP1;P1;durP2;ratioP2;P2;SDS_P1;SDS_P2;PMS_P1;PMS_P2;Temp;Humidity;BMP_temperature;BMP_pressure;BME280_temperature;BME280_humidity;BME280_pressure;Samples;Min_cycle;Max_cycle;Signal;HPM_P1;HPM_P2
2022/07/24 06:17:46;;;;;;;14.50;8.07;;;20.60;71.50;;;;;;4780429;30;20146;-74
2022/07/24 06:20:12;;;;;;;12.05;8.55;;;20.60;71.80;;;;;;4792091;30;20141;-73
2022/07/24 06:22:41;;;;;;;11.25;8.50;;;20.60;71.90;;;;;;4791791;30;20055;-71
2022/07/24 06:25:08;;;;;;;12.05;8.55;;;20.70;72.00;;;;;;4791357;30;20384;-74
2022/07/24 06:27:39;;;;;;;13.05;9.68;;;20.70;72.10;;;;;;4791893;30;20455;-71
2022/07/24 06:30:05;;;;;;;13.55;8.43;;;20.70;72.50;;;;;;4791710;30;20211;-72
2022/07/24 06:32:31;;;;;;;16.80;10.52;;;20.70;72.80;;;;;;4791891;30;20086;-74
2022/07/24 06:34:56;;;;;;;13.32;9.77;;;20.80;73.50;;;;;;4790964;30;20168;-75
2022/07/24 06:37:22;;;;;;;12.52;8.75;;;20.80;73.00;;;;;;4790970;30;20055;-74
2022/07/24 06:39:48;;;;;;;13.85;8.55;;;20.80;73.20;;;;;;4791287;30;20131;-74
2022/07/24 06:42:14;;;;;;;11.25;8.32;;;20.90;73.20;;;;;;4789596;30;20060;-75
2022/07/24 06:44:39;;;;;;;10.13;8.40;;;20.90;73.30;;;;;;4790522;30;20063;-73
2022/07/24 06:47:05;;;;;;;12.35;8.60;;;20.90;73.20;;;;;;4792140;30;20134;-75
2022/07/24 06:49:31;;;;;;;12.65;9.45;;;20.90;73.30;;;;;;4791714;29;20477;-74
2022/07/24 06:51:56;;;;;;;13.13;8.68;;;21.00;73.30;;;;;;4799877;29;20055;-73
2022/07/24 06:54:22;;;;;;;11.80;8.60;;;21.00;73.10;;;;;;4791460;30;20087;-72
2022/07/24 06:56:48;;;;;;;11.55;9.18;;;21.00;73.20;;;;;;4806919;29;20126;-71
2022/07/24 06:59:14;;;;;;;17.23;10.10;;;21.00;73.60;;;;;;4809133;29;20454;-73
2022/07/24 07:01:39;;;;;;;12.52;9.45;;;21.10;73.80;;;;;;4808940;29;20086;-73
2022/07/24 07:04:05;;;;;;;17.15;11.02;;;21.10;74.00;;;;;;4808998;29;20116;-72
2022/07/24 07:06:31;;;;;;;12.27;10.00;;;21.10;74.20;;;;;;4808718;29;20112;-73
2022/07/24 07:08:57;;;;;;;15.07;9.50;;;21.10;74.20;;;;;;4808848;29;20111;-72
2022/07/24 07:11:22;;;;;;;15.40;10.45;;;21.10;74.30;;;;;;4808637;29;20050;-72
2022/07/24 07:13:48;;;;;;;13.68;9.40;;;21.10;74.50;;;;;;4809682;29;20131;-73
2022/07/24 07:16:14;;;;;;;14.07;9.70;;;21.20;74.70;;;;;;4808837;29;20051;-72
2022/07/24 07:18:39;;;;;;;16.85;10.48;;;21.20;74.60;;;;;;4808633;29;20062;-75
2022/07/24 07:21:05;;;;;;;14.32;10.70;;;21.20;74.70;;;;;;4808734;29;20042;-74
2022/07/24 07:23:31;;;;;;;14.77;9.15;;;21.20;74.80;;;;;;4778588;29;20468;-73
2022/07/24 07:25:57;;;;;;;18.10;9.80;;;21.20;74.80;;;;;;4808485;29;20047;-74
2022/07/24 07:28:22;;;;;;;14.98;9.00;;;21.20;74.60;;;;;;4808411;29;20162;-74
2022/07/24 07:30:48;;;;;;;14.93;8.00;;;21.20;74.50;;;;;;4808635;29;20054;-75
2022/07/24 07:33:14;;;;;;;13.85;8.68;;;21.20;74.40;;;;;;4808706;29;20500;-73
2022/07/24 07:35:40;;;;;;;11.93;7.80;;;21.20;74.40;;;;;;4780858;30;20059;-76
2022/07/24 07:43:17;;;;;;;15.02;6.55;;;21.30;74.30;;;;;;5151016;24;20535;-75
2022/07/24 10:38:28;;;;;;;8.88;2.70;;;22.40;70.50;;;;;;5330779;24;20054;-74
2022/07/24 10:41:04;;;;;;;5.95;1.75;;;22.40;70.20;;;;;;4826477;29;20057;-76
2022/07/24 10:43:29;;;;;;;6.28;2.30;;;22.40;69.70;;;;;;4827665;29;20054;-75
2022/07/24 10:45:58;;;;;;;8.25;2.35;;;22.40;70.00;;;;;;4812232;29;20374;-77
2022/07/24 10:48:30;;;;;;;10.40;2.42;;;22.40;69.90;;;;;;4826904;29;20061;-77
2022/07/24 10:51:08;;;;;;;6.75;2.28;;;22.40;69.70;;;;;;4826798;29;20474;-77
2022/07/24 10:53:38;;;;;;;9.00;2.60;;;22.50;69.30;;;;;;4827066;29;20473;-75
2022/07/24 10:56:19;;;;;;;6.85;2.28;;;22.50;69.30;;;;;;4828109;29;20046;-74
2022/07/24 10:59:09;;;;;;;5.20;2.22;;;22.40;70.20;;;;;;4826908;29;20121;-75
2022/07/24 11:01:48;;;;;;;6.18;2.05;;;22.40;70.20;;;;;;4823907;29;20046;-75
2022/07/24 11:04:22;;;;;;;4.25;2.33;;;22.40;70.30;;;;;;4827017;29;20077;-76
2022/07/24 11:06:56;;;;;;;6.53;2.30;;;22.40;70.40;;;;;;4826611;29;20093;-76
2022/07/24 11:09:26;;;;;;;6.47;2.67;;;22.50;70.50;;;;;;4826461;29;20054;-77
2022/07/24 11:11:52;;;;;;;5.63;2.92;;;22.50;70.50;;;;;;4826258;29;20050;-77
2022/07/24 11:15:53;;;;;;;6.85;2.10;;;22.50;70.20;;;;;;4830958;29;20141;-77
2022/07/24 11:17:49;;;;;;;7.18;2.22;;;22.50;69.70;;;;;;4737163;30;20071;-77
2022/07/24 11:20:19;;;;;;;8.73;2.80;;;22.50;69.30;;;;;;4844748;29;20053;-78
2022/07/24 11:22:49;;;;;;;10.60;2.75;;;22.50;68.80;;;;;;4835176;29;20054;-79
2022/07/24 11:25:41;;;;;;;5.75;2.50;;;22.50;68.70;;;;;;4811021;29;20137;-78
2022/07/24 11:28:07;;;;;;;11.50;3.05;;;22.60;67.90;;;;;;4822520;29;20054;-77
2022/07/24 11:30:32;;;;;;;8.10;2.47;;;22.60;68.20;;;;;;4826315;29;20065;-77
2022/07/24 11:32:59;;;;;;;10.23;2.67;;;22.60;67.80;;;;;;4827063;29;20050;-78
2022/07/24 11:35:36;;;;;;;8.90;2.30;;;22.60;68.00;;;;;;4826296;29;20088;-77
2022/07/24 14:50:55;;;;;;;4.50;2.22;;;22.80;67.70;;;;;;5395718;24;20065;-75
2022/07/24 14:53:20;;;;;;;5.22;1.73;;;22.80;67.10;;;;;;4869771;29;20471;-71
2022/07/24 14:55:46;;;;;;;4.05;2.25;;;22.80;67.20;;;;;;4883333;29;20052;-72
2022/07/24 14:58:12;;;;;;;3.65;2.10;;;22.80;67.70;;;;;;4882921;29;20048;-72
2022/07/24 15:00:38;;;;;;;7.15;2.35;;;22.80;68.20;;;;;;4882953;29;20056;-72
2022/07/24 15:03:04;;;;;;;5.10;2.10;;;22.80;68.50;;;;;;4878463;29;20041;-72
2022/07/24 15:05:29;;;;;;;8.98;2.38;;;22.80;68.80;;;;;;4863889;29;20360;-72
2022/07/24 15:07:55;;;;;;;7.28;2.42;;;22.80;68.90;;;;;;4863711;29;20045;-72
2022/07/24 15:10:21;;;;;;;6.57;2.20;;;22.80;69.10;;;;;;4863591;29;20061;-72
2022/07/24 15:12:46;;;;;;;7.60;2.25;;;22.80;69.10;;;;;;4864336;29;20456;-76
2022/07/24 15:15:12;;;;;;;7.60;3.10;;;22.80;70.10;;;;;;4882094;29;20095;-82
2022/07/24 15:17:38;;;;;;;9.52;3.22;;;22.80;69.20;;;;;;4866335;29;20333;-77
2022/07/24 15:20:04;;;;;;;8.57;2.45;;;22.80;69.30;;;;;;4871928;29;20619;-75
2022/07/24 15:22:30;;;;;;;7.03;3.00;;;22.80;69.40;;;;;;4862902;29;20523;-78
2022/07/24 15:24:55;;;;;;;7.47;2.58;;;22.90;69.50;;;;;;4863553;29;20049;-78
2022/07/24 15:27:21;;;;;;;8.10;2.60;;;23.00;68.50;;;;;;4863372;29;20049;-77
2022/07/24 15:29:47;;;;;;;6.07;2.83;;;23.00;67.60;;;;;;4847098;29;20050;-75
2022/07/24 15:32:13;;;;;;;4.70;2.60;;;23.10;66.50;;;;;;4863289;29;20042;-77
2022/07/24 15:34:38;;;;;;;4.00;2.40;;;23.20;65.40;;;;;;4877125;29;20440;-75
2022/07/24 15:37:04;;;;;;;4.65;2.53;;;23.30;64.90;;;;;;4882070;29;20052;-79
2022/07/24 15:39:30;;;;;;;4.47;2.80;;;23.40;64.60;;;;;;4880067;29;20105;-81
2022/07/24 15:41:55;;;;;;;5.80;2.58;;;23.40;64.50;;;;;;4880525;29;20104;-77
2022/07/24 15:44:21;;;;;;;8.50;2.60;;;23.40;65.00;;;;;;4870125;29;20061;-77
2022/07/24 15:46:47;;;;;;;4.15;2.45;;;23.40;65.90;;;;;;4863410;29;20076;-77
2022/07/24 15:49:13;;;;;;;7.38;2.70;;;23.40;65.90;;;;;;4877715;29;20052;-76
2022/07/24 15:51:39;;;;;;;11.93;2.63;;;23.50;66.10;;;;;;4862906;29;20053;-77
2022/07/24 15:54:05;;;;;;;8.50;2.33;;;23.50;65.90;;;;;;4855171;29;20059;-77
2022/07/24 15:56:31;;;;;;;6.20;2.55;;;23.50;65.80;;;;;;4865477;29;20057;-77
2022/07/24 15:58:57;;;;;;;8.75;2.80;;;23.50;65.30;;;;;;4881971;29;20053;-77
2022/07/24 16:01:22;;;;;;;5.30;2.58;;;23.40;65.60;;;;;;4878725;29;20513;-76
2022/07/24 16:03:48;;;;;;;5.28;2.70;;;23.50;65.80;;;;;;4862883;29;20128;-77
2022/07/24 16:06:14;;;;;;;5.00;2.97;;;23.40;65.60;;;;;;4877622;29;20060;-74
2022/07/24 16:08:40;;;;;;;7.63;2.88;;;23.40;66.60;;;;;;4862903;29;20137;-74
2022/07/24 16:11:05;;;;;;;4.78;2.97;;;23.40;67.20;;;;;;4863462;29;20117;-77
2022/07/24 16:13:31;;;;;;;7.80;2.97;;;23.40;67.60;;;;;;4881135;29;20041;-76
2022/07/24 16:15:57;;;;;;;6.10;2.85;;;23.40;67.00;;;;;;4881496;29;20665;-78
2022/07/24 16:18:22;;;;;;;5.53;3.10;;;23.40;67.00;;;;;;4881393;29;20045;-74
2022/07/24 16:20:48;;;;;;;7.10;2.67;;;23.40;67.40;;;;;;4881214;29;20493;-77
2022/07/24 16:23:14;;;;;;;4.15;2.92;;;23.40;67.60;;;;;;4865031;29;20079;-77
2022/07/24 16:25:39;;;;;;;3.78;2.55;;;23.50;66.40;;;;;;4862721;29;20064;-76
2022/07/24 16:28:05;;;;;;;2.90;2.22;;;23.60;66.00;;;;;;4877202;29;20054;-76
2022/07/24 16:30:31;;;;;;;3.58;2.53;;;23.60;65.70;;;;;;4862945;29;20105;-75
2022/07/24 18:30:39;;;;;;;4.00;2.22;;;23.70;66.90;;;;;;5226906;24;20465;-76
2022/07/24 18:33:05;;;;;;;4.28;2.33;;;23.70;66.90;;;;;;4881601;29;20049;-76
2022/07/24 18:35:30;;;;;;;4.70;2.35;;;23.80;66.10;;;;;;4882701;29;20049;-76
2022/07/24 18:37:56;;;;;;;2.55;2.15;;;23.80;66.50;;;;;;4882226;29;20368;-74
2022/07/24 18:40:22;;;;;;;2.45;2.00;;;23.80;67.10;;;;;;4883524;29;20060;-73
2022/07/24 18:42:49;;;;;;;3.72;2.45;;;23.80;67.50;;;;;;4882682;29;20147;-73
2022/07/24 18:45:15;;;;;;;1.77;1.50;;;23.80;67.50;;;;;;4882835;29;20408;-73
2022/07/24 18:47:41;;;;;;;4.95;2.10;;;23.70;67.60;;;;;;4882785;29;20052;-75
2022/07/24 18:50:08;;;;;;;2.53;1.85;;;23.70;67.00;;;;;;4883118;29;20130;-77
2022/07/24 18:52:34;;;;;;;3.35;1.88;;;23.80;66.50;;;;;;4882668;29;20053;-76
2022/07/24 18:55:00;;;;;;;4.65;2.30;;;23.80;65.50;;;;;;4882299;29;20487;-76
2022/07/24 18:57:26;;;;;;;2.80;1.92;;;23.80;65.10;;;;;;4882787;29;20120;-77
2022/07/24 18:59:52;;;;;;;2.17;1.88;;;23.80;65.50;;;;;;4882731;29;20050;-78
2022/07/24 19:02:18;;;;;;;4.53;1.95;;;23.80;65.80;;;;;;4882436;29;20048;-78
2022/07/24 19:04:43;;;;;;;2.85;2.22;;;23.90;65.40;;;;;;4880319;29;20053;-78
2022/07/24 19:07:11;;;;;;;4.50;1.90;;;23.80;65.20;;;;;;4882082;29;20045;-80
2022/07/24 19:09:37;;;;;;;3.03;2.13;;;23.90;65.30;;;;;;4881497;29;20049;-78
2022/07/24 19:12:04;;;;;;;2.63;2.10;;;23.80;65.20;;;;;;4865827;29;20049;-78
2022/07/24 19:14:29;;;;;;;2.60;1.85;;;23.80;64.90;;;;;;4882145;29;20460;-78
2022/07/24 19:16:55;;;;;;;2.90;2.25;;;23.80;64.80;;;;;;4880888;29;20053;-78
2022/07/24 19:19:22;;;;;;;2.80;2.05;;;23.80;64.70;;;;;;4882264;29;20124;-80
2022/07/24 19:21:48;;;;;;;4.28;2.10;;;23.80;64.70;;;;;;4882436;29;20480;-80
2022/07/24 19:24:14;;;;;;;2.67;1.80;;;23.80;64.90;;;;;;4865486;29;20045;-78
2022/07/24 19:26:40;;;;;;;3.17;2.67;;;23.80;65.00;;;;;;4881958;29;20045;-78
2022/07/24 19:29:06;;;;;;;2.40;2.20;;;23.80;65.00;;;;;;4881231;29;20044;-79
2022/07/24 19:31:32;;;;;;;3.65;2.65;;;23.80;65.10;;;;;;4873565;29;20144;-79
2022/07/24 19:33:57;;;;;;;2.75;2.38;;;23.80;65.30;;;;;;4861992;29;20037;-80
2022/07/24 19:36:23;;;;;;;4.63;2.60;;;23.80;65.50;;;;;;4862843;29;20049;-79
2022/07/24 19:38:49;;;;;;;3.85;2.85;;;23.80;65.50;;;;;;4862790;29;20140;-79
2022/07/24 19:41:14;;;;;;;4.05;2.67;;;23.80;65.60;;;;;;4863392;29;20060;-79
2022/07/24 19:43:40;;;;;;;4.05;2.63;;;23.70;65.60;;;;;;4862809;29;20046;-78
2022/07/24 19:46:06;;;;;;;3.92;3.30;;;23.70;65.70;;;;;;4863202;29;20117;-79
2022/07/24 19:48:32;;;;;;;4.65;2.38;;;23.70;65.90;;;;;;4847003;29;20453;-78
2022/07/24 19:50:57;;;;;;;2.70;2.30;;;23.70;66.10;;;;;;4863417;29;20126;-78
2022/07/24 19:53:23;;;;;;;3.47;2.35;;;23.70;66.40;;;;;;4862201;29;20389;-78
2022/07/24 19:55:49;;;;;;;6.35;2.58;;;23.70;66.40;;;;;;4862158;29;20060;-79
2022/07/24 19:58:18;;;;;;;6.18;2.58;;;23.60;66.10;;;;;;4863254;29;20049;-80
2022/07/24 20:00:44;;;;;;;2.92;2.33;;;23.70;66.10;;;;;;4844673;29;20049;-78
2022/07/24 20:03:10;;;;;;;4.63;2.97;;;23.70;66.20;;;;;;4861685;29;20065;-80
2022/07/24 20:05:36;;;;;;;4.10;3.50;;;23.60;66.00;;;;;;4855914;29;20062;-79
2022/07/24 20:08:03;;;;;;;5.47;3.30;;;23.60;66.00;;;;;;4843768;29;20054;-78
2022/07/24 20:10:29;;;;;;;5.25;2.95;;;23.60;66.30;;;;;;4844020;29;20061;-79
2022/07/24 20:12:56;;;;;;;4.55;3.30;;;23.60;66.30;;;;;;4843164;29;20412;-78
2022/07/24 20:15:21;;;;;;;5.22;3.38;;;23.60;66.50;;;;;;4862328;29;20411;-78
2022/07/24 20:17:47;;;;;;;4.30;2.83;;;23.60;66.50;;;;;;4862416;29;20124;-79
2022/07/24 20:20:13;;;;;;;4.28;2.67;;;23.60;66.50;;;;;;4846724;29;20049;-78
2022/07/24 20:22:39;;;;;;;2.80;2.15;;;23.60;66.60;;;;;;4846213;29;20057;-79
2022/07/24 20:25:05;;;;;;;5.68;2.22;;;23.60;66.80;;;;;;4860502;29;20057;-75
2022/07/24 20:27:31;;;;;;;4.63;2.80;;;23.60;66.90;;;;;;4862026;29;20190;-76
2022/07/24 20:29:57;;;;;;;4.03;2.63;;;23.60;67.20;;;;;;4862915;29;20140;-77
2022/07/24 20:32:22;;;;;;;11.05;4.07;;;23.60;67.30;;;;;;4856915;29;20061;-74
2022/07/24 20:34:48;;;;;;;6.07;3.45;;;23.50;67.70;;;;;;4876960;29;20053;-78
2022/07/24 20:37:14;;;;;;;6.70;3.35;;;23.50;68.30;;;;;;4881536;29;20409;-76
2022/07/24 20:39:39;;;;;;;10.45;2.88;;;23.50;68.60;;;;;;4880651;29;20133;-77
2022/07/24 20:42:06;;;;;;;4.93;2.80;;;23.50;68.80;;;;;;4881020;29;20057;-79
2022/07/24 20:44:32;;;;;;;4.43;2.97;;;23.60;69.00;;;;;;4881315;29;20119;-78
2022/07/24 20:46:58;;;;;;;4.60;2.85;;;23.50;69.20;;;;;;4864760;29;20128;-79
2022/07/24 20:49:23;;;;;;;5.57;2.83;;;23.50;69.50;;;;;;4881244;29;20079;-76
2022/07/24 20:51:49;;;;;;;4.80;2.88;;;23.60;69.80;;;;;;4881754;29;20352;-76
2022/07/24 20:54:18;;;;;;;6.78;3.05;;;23.60;69.90;;;;;;4881871;29;20053;-77
2022/07/24 20:56:43;;;;;;;9.93;3.10;;;23.50;69.90;;;;;;4881103;29;20096;-75
2022/07/24 20:59:09;;;;;;;4.68;2.67;;;23.50;70.30;;;;;;4865530;29;20061;-76
2022/07/24 21:01:35;;;;;;;6.10;2.70;;;23.60;70.60;;;;;;4864912;29;20067;-77
2022/07/24 21:04:01;;;;;;;3.83;2.60;;;23.50;70.70;;;;;;4880970;29;20060;-80
2022/07/24 21:06:26;;;;;;;4.75;2.63;;;23.50;70.90;;;;;;4880918;29;20049;-78
2022/07/24 21:08:52;;;;;;;7.95;2.92;;;23.50;71.00;;;;;;4866245;29;20112;-77
2022/07/24 21:11:21;;;;;;;3.80;2.53;;;23.50;71.00;;;;;;4884778;29;20128;-75
2022/07/24 21:13:46;;;;;;;3.83;2.60;;;23.50;70.70;;;;;;4884103;29;20483;-75
2022/07/24 21:16:12;;;;;;;4.55;2.65;;;23.50;70.80;;;;;;4884376;29;20064;-77
2022/07/24 21:18:38;;;;;;;3.05;2.45;;;23.50;70.90;;;;;;4884405;29;20048;-75
2022/07/24 21:21:04;;;;;;;3.78;2.88;;;23.50;71.00;;;;;;4883610;29;21605;-78
2022/07/24 21:23:29;;;;;;;4.65;2.90;;;23.50;71.10;;;;;;4884330;29;20441;-76
2022/07/24 21:25:55;;;;;;;4.18;2.88;;;23.50;71.10;;;;;;4884493;29;20134;-78
2022/07/24 21:28:21;;;;;;;4.95;2.55;;;23.50;71.20;;;;;;4884344;29;20124;-77
2022/07/24 21:30:47;;;;;;;5.30;2.45;;;23.50;71.10;;;;;;4867676;29;20364;-77
2022/07/24 21:33:12;;;;;;;5.93;2.60;;;23.50;71.20;;;;;;4867867;29;20509;-76
2022/07/24 21:35:38;;;;;;;4.18;2.88;;;23.50;71.30;;;;;;4867757;29;20052;-77
2022/07/24 21:38:04;;;;;;;4.00;2.88;;;23.50;71.40;;;;;;4884800;29;20057;-76
2022/07/24 21:40:31;;;;;;;4.25;2.85;;;23.50;71.40;;;;;;4884154;29;20084;-77
2022/07/24 21:42:57;;;;;;;3.67;2.72;;;23.50;71.40;;;;;;4884339;29;20068;-77
2022/07/24 21:45:23;;;;;;;3.70;2.50;;;23.50;72.00;;;;;;4884086;29;20385;-78
2022/07/24 21:47:49;;;;;;;4.40;2.60;;;23.40;71.30;;;;;;4882847;29;20048;-76
2022/07/24 21:50:15;;;;;;;3.92;2.60;;;23.40;71.40;;;;;;4882879;29;20376;-76
2022/07/24 21:52:41;;;;;;;4.05;2.92;;;23.40;71.30;;;;;;4865896;29;20117;-77
2022/07/24 21:55:07;;;;;;;3.63;2.58;;;23.40;71.30;;;;;;4864937;29;20092;-77
2022/07/24 21:57:33;;;;;;;3.40;2.58;;;23.40;71.40;;;;;;4865441;29;20121;-77
2022/07/24 21:59:59;;;;;;;5.10;2.95;;;23.40;71.40;;;;;;4865233;29;20426;-78
2022/07/24 22:02:24;;;;;;;4.18;2.65;;;23.40;71.40;;;;;;4864985;29;20052;-77
2022/07/24 22:04:50;;;;;;;5.43;3.13;;;23.40;71.30;;;;;;4883956;29;20053;-78
2022/07/24 22:07:16;;;;;;;3.05;2.63;;;23.40;72.00;;;;;;4884013;29;20140;-78
2022/07/24 22:09:42;;;;;;;3.88;2.58;;;23.40;71.40;;;;;;4883829;29;20069;-77
2022/07/24 22:12:08;;;;;;;5.85;2.90;;;23.40;71.30;;;;;;4883225;29;20416;-76
2022/07/24 22:14:33;;;;;;;5.15;3.00;;;23.40;71.30;;;;;;4883805;29;20476;-76
2022/07/24 22:16:59;;;;;;;2.45;2.22;;;23.40;71.20;;;;;;4867245;29;20056;-77
2022/07/24 22:19:25;;;;;;;2.78;2.28;;;23.40;71.20;;;;;;4883096;29;20049;-76
2022/07/24 22:21:51;;;;;;;2.55;2.22;;;23.40;71.20;;;;;;4882923;29;20044;-77
2022/07/24 22:24:17;;;;;;;4.85;2.65;;;23.40;71.30;;;;;;4883727;29;20056;-76
2022/07/24 22:26:42;;;;;;;4.45;2.35;;;23.40;71.10;;;;;;4883442;29;20056;-76
2022/07/24 22:29:08;;;;;;;2.60;2.40;;;23.40;71.10;;;;;;4883207;29;20060;-77
2022/07/24 22:31:34;;;;;;;3.95;2.50;;;23.40;71.10;;;;;;4875227;29;20457;-77
2022/07/24 22:34:00;;;;;;;3.15;2.50;;;23.40;71.10;;;;;;4848910;29;20125;-76
2022/07/24 22:36:31;;;;;;;3.35;2.42;;;23.40;71.00;;;;;;4864846;29;20426;-76
2022/07/24 22:38:59;;;;;;;2.83;2.15;;;23.40;71.00;;;;;;4864607;29;20468;-76
2022/07/24 22:41:25;;;;;;;2.55;2.00;;;23.40;70.90;;;;;;4864539;29;20053;-77
2022/07/24 22:43:50;;;;;;;2.50;2.30;;;23.40;71.00;;;;;;4865135;29;20146;-77
2022/07/24 22:46:16;;;;;;;2.05;1.85;;;23.40;70.90;;;;;;4864476;29;20060;-77
2022/07/24 22:48:43;;;;;;;3.55;2.40;;;23.40;70.90;;;;;;4863498;29;20381;-76
2022/07/24 22:51:09;;;;;;;2.40;1.77;;;23.40;70.90;;;;;;4847130;29;20061;-76
2022/07/24 22:53:35;;;;;;;3.10;2.45;;;23.40;70.90;;;;;;4858821;29;20053;-77
2022/07/24 22:56:02;;;;;;;2.60;2.40;;;23.40;70.90;;;;;;4863574;29;20049;-77
2022/07/24 22:58:28;;;;;;;3.17;2.15;;;23.40;70.90;;;;;;4864300;29;20132;-76
2022/07/24 23:00:54;;;;;;;2.30;2.10;;;23.40;70.90;;;;;;4863524;29;20136;-76
2022/07/24 23:03:19;;;;;;;2.83;2.30;;;23.40;70.80;;;;;;4863574;29;20484;-77
2022/07/24 23:05:46;;;;;;;2.60;2.40;;;23.40;70.70;;;;;;4864683;29;20049;-77
2022/07/24 23:08:12;;;;;;;2.22;2.03;;;23.40;70.70;;;;;;4864155;29;20368;-77
2022/07/24 23:10:38;;;;;;;2.75;2.33;;;23.40;70.70;;;;;;4864140;29;20060;-76
2022/07/24 23:13:04;;;;;;;2.25;1.90;;;23.40;70.50;;;;;;4863660;29;20087;-77
2022/07/24 23:15:29;;;;;;;2.28;1.83;;;23.40;70.50;;;;;;4864194;29;20057;-76
2022/07/24 23:17:55;;;;;;;2.65;2.15;;;23.40;70.50;;;;;;4864346;29;20452;-76
2022/07/24 23:20:21;;;;;;;2.88;2.47;;;23.40;70.40;;;;;;4864625;29;20053;-76
2022/07/24 23:22:47;;;;;;;1.88;1.70;;;23.40;70.40;;;;;;4863332;29;20053;-76
2022/07/24 23:25:13;;;;;;;2.28;2.00;;;23.40;70.40;;;;;;4863873;29;20049;-77
2022/07/24 23:27:39;;;;;;;3.15;2.55;;;23.40;70.40;;;;;;4863145;29;20092;-78
2022/07/24 23:30:06;;;;;;;2.25;1.95;;;23.40;70.30;;;;;;4862742;29;20058;-77
2022/07/24 23:32:32;;;;;;;2.75;2.25;;;23.40;70.30;;;;;;4850592;29;20065;-75
2022/07/24 23:34:58;;;;;;;2.30;1.98;;;23.40;70.30;;;;;;4863524;29;20057;-76
2022/07/24 23:37:23;;;;;;;3.22;2.22;;;23.40;70.30;;;;;;4863394;29;20084;-76
2022/07/24 23:39:50;;;;;;;2.60;2.40;;;23.40;70.30;;;;;;4848053;29;20061;-77
2022/07/24 23:42:15;;;;;;;2.30;2.05;;;23.40;70.30;;;;;;4863101;29;20485;-76
2022/07/24 23:44:41;;;;;;;2.53;2.33;;;23.40;70.30;;;;;;4863121;29;20056;-76
2022/07/24 23:47:07;;;;;;;2.10;1.88;;;23.40;70.40;;;;;;4863615;29;20120;-76
2022/07/24 23:49:33;;;;;;;3.05;2.05;;;23.40;70.40;;;;;;4881118;29;20045;-76
2022/07/24 23:51:59;;;;;;;2.03;1.75;;;23.40;70.40;;;;;;4875670;29;20045;-77
2022/07/24 23:54:26;;;;;;;3.63;2.30;;;23.40;70.40;;;;;;4862965;29;20061;-76
2022/07/24 23:56:51;;;;;;;2.42;2.03;;;23.40;70.40;;;;;;4863481;29;20074;-76
2022/07/24 23:59:17;;;;;;;2.33;2.05;;;23.40;70.40;;;;;;4863151;29;20049;-75
